sensor_id;sensor_type;location;lat;lon;timestamp;pressure;altitude;pressure_sealevel;temperature;humidity
13027;BME280;6580;42.680;23.324;2023-02-23T00:00:25;95117.41;;;8.77;80.37
13027;BME280;6580;42.680;23.324;2023-02-23T00:02:57;95113.69;;;8.87;79.48
13027;BME280;6580;42.680;23.324;2023-02-23T00:05:27;95118.50;;;8.84;79.15
13027;BME280;6580;42.680;23.324;2023-02-23T00:07:54;95119.06;;;8.78;79.67
13027;BME280;6580;42.680;23.324;2023-02-23T00:10:24;95121.91;;;8.76;79.91
13027;BME280;6580;42.680;23.324;2023-02-23T00:12:55;95118.22;;;8.60;81.38
13027;BME280;6580;42.680;23.324;2023-02-23T00:15:22;95131.72;;;8.66;81.17
13027;BME280;6580;42.680;23.324;2023-02-23T00:17:52;95130.78;;;8.58;82.29
13027;BME280;6580;42.680;23.324;2023-02-23T00:20:21;95115.63;;;8.50;81.72
13027;BME280;6580;42.680;23.324;2023-02-23T00:22:53;95126.16;;;8.42;83.60
13027;BME280;6580;42.680;23.324;2023-02-23T00:25:23;95135.34;;;8.48;83.20
13027;BME280;6580;42.680;23.324;2023-02-23T00:27:56;95130.91;;;8.66;82.04
13027;BME280;6580;42.680;23.324;2023-02-23T00:30:30;95134.06;;;8.52;83.21
13027;BME280;6580;42.680;23.324;2023-02-23T00:32:58;95128.47;;;8.55;82.33
13027;BME280;6580;42.680;23.324;2023-02-23T00:35:26;95135.97;;;8.59;82.15
13027;BME280;6580;42.680;23.324;2023-02-23T00:37:53;95134.81;;;8.62;82.06
13027;BME280;6580;42.680;23.324;2023-02-23T00:40:22;95128.31;;;8.56;82.87
13027;BME280;6580;42.680;23.324;2023-02-23T00:42:55;95137.47;;;8.62;82.86
13027;BME280;6580;42.680;23.324;2023-02-23T00:45:22;95136.50;;;8.63;82.24
13027;BME280;6580;42.680;23.324;2023-02-23T00:47:51;95136.84;;;8.50;82.86
13027;BME280;6580;42.680;23.324;2023-02-23T00:50:19;95121.19;;;8.30;83.75
13027;BME280;6580;42.680;23.324;2023-02-23T00:52:47;95128.66;;;8.17;85.25
13027;BME280;6580;42.680;23.324;2023-02-23T00:55:15;95125.78;;;8.28;85.77
13027;BME280;6580;42.680;23.324;2023-02-23T00:57:44;95126.97;;;8.43;83.94
13027;BME280;6580;42.680;23.324;2023-02-23T01:00:12;95124.31;;;8.43;83.26
13027;BME280;6580;42.680;23.324;2023-02-23T01:02:45;95097.34;;;8.11;84.54
13027;BME280;6580;42.680;23.324;2023-02-23T01:05:15;95124.19;;;8.44;82.86
13027;BME280;6580;42.680;23.324;2023-02-23T01:07:42;95131.75;;;8.39;82.44
13027;BME280;6580;42.680;23.324;2023-02-23T01:10:11;95132.09;;;8.54;81.69
13027;BME280;6580;42.680;23.324;2023-02-23T01:12:50;95126.78;;;8.27;82.17
13027;BME280;6580;42.680;23.324;2023-02-23T01:15:18;95128.97;;;8.31;82.62
13027;BME280;6580;42.680;23.324;2023-02-23T01:17:46;95135.31;;;8.21;83.29
13027;BME280;6580;42.680;23.324;2023-02-23T01:20:16;95127.34;;;8.21;84.87
13027;BME280;6580;42.680;23.324;2023-02-23T01:22:47;95121.34;;;8.19;84.26
13027;BME280;6580;42.680;23.324;2023-02-23T01:25:14;95124.47;;;7.96;85.07
13027;BME280;6580;42.680;23.324;2023-02-23T01:27:44;95122.03;;;8.11;84.75
13027;BME280;6580;42.680;23.324;2023-02-23T01:30:13;95116.69;;;7.94;86.11
13027;BME280;6580;42.680;23.324;2023-02-23T01:32:40;95116.94;;;7.64;87.69
13027;BME280;6580;42.680;23.324;2023-02-23T01:35:09;95123.59;;;7.59;88.69
13027;BME280;6580;42.680;23.324;2023-02-23T01:37:39;95122.66;;;7.50;89.54
13027;BME280;6580;42.680;23.324;2023-02-23T01:40:11;95118.94;;;7.89;87.79
13027;BME280;6580;42.680;23.324;2023-02-23T01:42:43;95125.91;;;7.90;86.23
13027;BME280;6580;42.680;23.324;2023-02-23T01:45:31;95124.94;;;7.91;85.52
13027;BME280;6580;42.680;23.324;2023-02-23T01:48:04;95124.34;;;7.97;84.52
13027;BME280;6580;42.680;23.324;2023-02-23T01:50:39;95118.56;;;8.11;85.33
13027;BME280;6580;42.680;23.324;2023-02-23T01:53:08;95110.00;;;7.90;85.05
13027;BME280;6580;42.680;23.324;2023-02-23T01:55:37;95124.94;;;7.91;85.93
13027;BME280;6580;42.680;23.324;2023-02-23T01:58:08;95118.13;;;7.79;87.05
13027;BME280;6580;42.680;23.324;2023-02-23T02:00:47;95111.19;;;7.69;86.68
13027;BME280;6580;42.680;23.324;2023-02-23T02:03:19;95122.03;;;7.75;87.28
13027;BME280;6580;42.680;23.324;2023-02-23T02:05:51;95113.13;;;7.67;88.54
13027;BME280;6580;42.680;23.324;2023-02-23T02:08:21;95119.25;;;7.67;87.44
13027;BME280;6580;42.680;23.324;2023-02-23T02:10:49;95110.41;;;7.95;86.47
13027;BME280;6580;42.680;23.324;2023-02-23T02:13:23;95101.44;;;7.60;86.77
13027;BME280;6580;42.680;23.324;2023-02-23T02:19:55;95117.06;;;7.53;88.32
13027;BME280;6580;42.680;23.324;2023-02-23T02:22:41;95114.28;;;7.55;88.75
13027;BME280;6580;42.680;23.324;2023-02-23T02:25:30;95108.56;;;7.59;87.31
13027;BME280;6580;42.680;23.324;2023-02-23T02:28:28;95120.66;;;7.71;87.42
13027;BME280;6580;42.680;23.324;2023-02-23T02:34:40;95129.03;;;7.67;85.24
13027;BME280;6580;42.680;23.324;2023-02-23T02:37:33;95122.75;;;7.68;85.48
13027;BME280;6580;42.680;23.324;2023-02-23T02:42:59;95116.25;;;7.53;85.97
13027;BME280;6580;42.680;23.324;2023-02-23T02:45:40;95115.69;;;7.49;85.48
13027;BME280;6580;42.680;23.324;2023-02-23T02:48:17;95112.44;;;7.65;84.43
13027;BME280;6580;42.680;23.324;2023-02-23T02:50:52;95124.91;;;7.36;85.71
13027;BME280;6580;42.680;23.324;2023-02-23T02:53:25;95121.56;;;7.43;85.64
13027;BME280;6580;42.680;23.324;2023-02-23T02:55:56;95115.41;;;7.43;85.70
13027;BME280;6580;42.680;23.324;2023-02-23T02:58:25;95119.91;;;7.23;86.39
13027;BME280;6580;42.680;23.324;2023-02-23T03:00:52;95113.03;;;7.40;85.73
13027;BME280;6580;42.680;23.324;2023-02-23T03:03:38;95114.16;;;7.47;85.96
13027;BME280;6580;42.680;23.324;2023-02-23T03:06:26;95122.94;;;7.47;84.27
13027;BME280;6580;42.680;23.324;2023-02-23T03:09:24;95119.31;;;7.48;84.63
13027;BME280;6580;42.680;23.324;2023-02-23T03:12:28;95117.66;;;7.19;86.79
13027;BME280;6580;42.680;23.324;2023-02-23T03:15:35;95093.72;;;6.92;87.71
13027;BME280;6580;42.680;23.324;2023-02-23T03:18:31;95118.78;;;7.16;87.36
13027;BME280;6580;42.680;23.324;2023-02-23T03:21:24;95123.66;;;7.30;87.49
13027;BME280;6580;42.680;23.324;2023-02-23T03:24:16;95121.31;;;7.27;87.32
13027;BME280;6580;42.680;23.324;2023-02-23T03:27:07;95129.09;;;7.19;88.07
13027;BME280;6580;42.680;23.324;2023-02-23T03:29:57;95125.06;;;7.15;88.35
13027;BME280;6580;42.680;23.324;2023-02-23T03:32:47;95136.50;;;7.06;88.56
13027;BME280;6580;42.680;23.324;2023-02-23T03:35:38;95144.16;;;6.91;90.75
13027;BME280;6580;42.680;23.324;2023-02-23T03:38:33;95129.25;;;6.90;90.55
13027;BME280;6580;42.680;23.324;2023-02-23T03:41:20;95135.78;;;6.86;91.71
13027;BME280;6580;42.680;23.324;2023-02-23T03:44:17;95148.06;;;7.05;90.02
13027;BME280;6580;42.680;23.324;2023-02-23T03:47:07;95128.13;;;6.92;89.58
13027;BME280;6580;42.680;23.324;2023-02-23T03:49:55;95145.25;;;7.07;89.81
13027;BME280;6580;42.680;23.324;2023-02-23T03:52:44;95151.53;;;6.87;90.95
13027;BME280;6580;42.680;23.324;2023-02-23T03:55:32;95152.94;;;7.01;90.19
13027;BME280;6580;42.680;23.324;2023-02-23T03:58:21;95157.50;;;6.80;92.22
13027;BME280;6580;42.680;23.324;2023-02-23T04:01:09;95166.00;;;6.83;91.90
13027;BME280;6580;42.680;23.324;2023-02-23T04:03:57;95158.34;;;6.71;93.10
13027;BME280;6580;42.680;23.324;2023-02-23T04:06:43;95157.22;;;6.73;93.87
13027;BME280;6580;42.680;23.324;2023-02-23T04:09:28;95156.81;;;6.78;94.18
13027;BME280;6580;42.680;23.324;2023-02-23T04:12:16;95139.13;;;6.78;93.11
13027;BME280;6580;42.680;23.324;2023-02-23T04:15:06;95163.34;;;6.83;93.44
13027;BME280;6580;42.680;23.324;2023-02-23T04:17:34;95157.09;;;6.94;92.99
13027;BME280;6580;42.680;23.324;2023-02-23T04:20:02;95153.47;;;6.85;93.80
13027;BME280;6580;42.680;23.324;2023-02-23T04:22:29;95122.41;;;6.78;93.03
13027;BME280;6580;42.680;23.324;2023-02-23T04:24:57;95150.00;;;6.85;92.97
13027;BME280;6580;42.680;23.324;2023-02-23T04:27:24;95153.03;;;6.71;95.01
13027;BME280;6580;42.680;23.324;2023-02-23T04:29:51;95144.94;;;6.63;95.01
13027;BME280;6580;42.680;23.324;2023-02-23T04:32:19;95156.66;;;6.70;95.86
13027;BME280;6580;42.680;23.324;2023-02-23T04:34:47;95158.34;;;6.71;95.49
13027;BME280;6580;42.680;23.324;2023-02-23T04:37:14;95161.09;;;6.69;96.21
13027;BME280;6580;42.680;23.324;2023-02-23T04:39:42;95157.06;;;6.75;96.20
13027;BME280;6580;42.680;23.324;2023-02-23T04:42:14;95150.81;;;6.76;95.31
13027;BME280;6580;42.680;23.324;2023-02-23T04:44:41;95162.53;;;6.83;94.59
13027;BME280;6580;42.680;23.324;2023-02-23T04:47:13;95157.88;;;6.56;96.95
13027;BME280;6580;42.680;23.324;2023-02-23T04:49:43;95165.84;;;6.66;97.09
13027;BME280;6580;42.680;23.324;2023-02-23T04:52:14;95159.53;;;6.48;96.55
13027;BME280;6580;42.680;23.324;2023-02-23T04:54:41;95169.66;;;6.43;98.13
13027;BME280;6580;42.680;23.324;2023-02-23T04:57:08;95159.28;;;6.51;97.42
13027;BME280;6580;42.680;23.324;2023-02-23T04:59:37;95162.88;;;6.50;98.28
13027;BME280;6580;42.680;23.324;2023-02-23T05:02:06;95157.19;;;6.64;97.27
13027;BME280;6580;42.680;23.324;2023-02-23T05:04:34;95161.66;;;6.54;96.90
13027;BME280;6580;42.680;23.324;2023-02-23T05:07:01;95165.25;;;6.53;97.05
13027;BME280;6580;42.680;23.324;2023-02-23T05:09:32;95155.25;;;6.56;97.97
13027;BME280;6580;42.680;23.324;2023-02-23T05:12:00;95162.75;;;6.61;96.77
13027;BME280;6580;42.680;23.324;2023-02-23T05:14:27;95166.94;;;6.54;97.05
13027;BME280;6580;42.680;23.324;2023-02-23T05:16:54;95160.94;;;6.52;96.67
13027;BME280;6580;42.680;23.324;2023-02-23T05:19:23;95160.28;;;6.69;95.32
13027;BME280;6580;42.680;23.324;2023-02-23T05:21:51;95166.53;;;6.68;94.09
13027;BME280;6580;42.680;23.324;2023-02-23T05:24:19;95167.38;;;6.68;93.78
13027;BME280;6580;42.680;23.324;2023-02-23T05:26:47;95166.97;;;6.63;94.50
13027;BME280;6580;42.680;23.324;2023-02-23T05:29:19;95175.28;;;6.59;94.91
13027;BME280;6580;42.680;23.324;2023-02-23T05:31:46;95176.16;;;6.69;94.13
13027;BME280;6580;42.680;23.324;2023-02-23T05:34:14;95177.16;;;6.77;92.63
13027;BME280;6580;42.680;23.324;2023-02-23T05:36:43;95184.13;;;6.88;91.27
13027;BME280;6580;42.680;23.324;2023-02-23T05:39:10;95184.81;;;6.71;92.37
13027;BME280;6580;42.680;23.324;2023-02-23T05:41:37;95188.69;;;6.67;92.19
13027;BME280;6580;42.680;23.324;2023-02-23T05:44:06;95178.38;;;6.64;92.92
13027;BME280;6580;42.680;23.324;2023-02-23T05:46:33;95193.44;;;6.73;93.11
13027;BME280;6580;42.680;23.324;2023-02-23T05:49:01;95199.56;;;6.73;92.31
13027;BME280;6580;42.680;23.324;2023-02-23T05:51:31;95196.50;;;6.78;92.73
13027;BME280;6580;42.680;23.324;2023-02-23T05:53:59;95200.41;;;6.93;91.42
13027;BME280;6580;42.680;23.324;2023-02-23T05:56:26;95208.25;;;7.03;90.58
13027;BME280;6580;42.680;23.324;2023-02-23T05:58:55;95206.31;;;7.05;90.19
13027;BME280;6580;42.680;23.324;2023-02-23T06:01:26;95207.72;;;7.09;90.42
13027;BME280;6580;42.680;23.324;2023-02-23T06:03:54;95213.41;;;7.14;89.71
13027;BME280;6580;42.680;23.324;2023-02-23T06:06:23;95203.25;;;7.19;89.48
13027;BME280;6580;42.680;23.324;2023-02-23T06:08:51;95214.28;;;7.15;88.75
13027;BME280;6580;42.680;23.324;2023-02-23T06:11:18;95209.38;;;7.48;87.24
13027;BME280;6580;42.680;23.324;2023-02-23T06:13:45;95215.81;;;7.55;87.27
13027;BME280;6580;42.680;23.324;2023-02-23T06:16:13;95218.03;;;7.69;85.42
13027;BME280;6580;42.680;23.324;2023-02-23T06:18:45;95220.22;;;7.83;85.34
13027;BME280;6580;42.680;23.324;2023-02-23T06:21:12;95223.59;;;7.85;84.51
13027;BME280;6580;42.680;23.324;2023-02-23T06:23:38;95217.19;;;7.78;84.08
13027;BME280;6580;42.680;23.324;2023-02-23T06:26:05;95218.28;;;7.76;84.49
13027;BME280;6580;42.680;23.324;2023-02-23T06:28:34;95218.84;;;7.89;83.95
13027;BME280;6580;42.680;23.324;2023-02-23T06:31:04;95228.06;;;7.85;83.89
13027;BME280;6580;42.680;23.324;2023-02-23T06:33:33;95222.47;;;7.97;83.70
13027;BME280;6580;42.680;23.324;2023-02-23T06:36:01;95222.28;;;8.27;81.82
13027;BME280;6580;42.680;23.324;2023-02-23T06:38:29;95221.84;;;8.31;80.88
13027;BME280;6580;42.680;23.324;2023-02-23T06:40:56;95229.47;;;8.44;79.25
13027;BME280;6580;42.680;23.324;2023-02-23T06:43:25;95232.97;;;8.81;76.76
13027;BME280;6580;42.680;23.324;2023-02-23T06:45:53;95235.31;;;9.10;74.66
13027;BME280;6580;42.680;23.324;2023-02-23T06:48:21;95228.69;;;9.76;71.28
13027;BME280;6580;42.680;23.324;2023-02-23T06:50:49;95220.38;;;10.14;67.90
13027;BME280;6580;42.680;23.324;2023-02-23T06:53:19;95216.31;;;10.27;65.71
13027;BME280;6580;42.680;23.324;2023-02-23T06:55:48;95216.06;;;10.38;64.86
13027;BME280;6580;42.680;23.324;2023-02-23T06:58:15;95207.72;;;10.67;63.82
13027;BME280;6580;42.680;23.324;2023-02-23T07:00:45;95218.34;;;10.92;62.68
13027;BME280;6580;42.680;23.324;2023-02-23T07:03:14;95224.41;;;11.10;61.06
13027;BME280;6580;42.680;23.324;2023-02-23T07:05:40;95213.94;;;10.83;62.42
13027;BME280;6580;42.680;23.324;2023-02-23T07:08:07;95217.44;;;11.17;61.66
13027;BME280;6580;42.680;23.324;2023-02-23T07:10:36;95210.63;;;11.30;60.83
13027;BME280;6580;42.680;23.324;2023-02-23T07:13:03;95216.63;;;11.32;60.79
13027;BME280;6580;42.680;23.324;2023-02-23T07:15:29;95223.63;;;11.25;60.97
13027;BME280;6580;42.680;23.324;2023-02-23T07:17:56;95213.38;;;10.64;63.04
13027;BME280;6580;42.680;23.324;2023-02-23T07:20:23;95221.75;;;10.43;64.17
13027;BME280;6580;42.680;23.324;2023-02-23T07:22:50;95224.06;;;10.21;65.83
13027;BME280;6580;42.680;23.324;2023-02-23T07:25:19;95223.28;;;10.03;67.17
13027;BME280;6580;42.680;23.324;2023-02-23T07:27:47;95228.66;;;9.94;67.69
13027;BME280;6580;42.680;23.324;2023-02-23T07:30:15;95221.16;;;9.72;69.16
13027;BME280;6580;42.680;23.324;2023-02-23T07:32:44;95218.44;;;9.81;69.19
13027;BME280;6580;42.680;23.324;2023-02-23T07:35:11;95219.94;;;9.84;68.94
13027;BME280;6580;42.680;23.324;2023-02-23T07:37:38;95213.22;;;9.97;68.61
13027;BME280;6580;42.680;23.324;2023-02-23T07:40:07;95216.81;;;10.06;67.97
13027;BME280;6580;42.680;23.324;2023-02-23T07:42:34;95209.47;;;10.25;66.42
13027;BME280;6580;42.680;23.324;2023-02-23T07:45:04;95200.47;;;10.18;67.05
13027;BME280;6580;42.680;23.324;2023-02-23T07:47:31;95208.66;;;10.07;67.47
13027;BME280;6580;42.680;23.324;2023-02-23T07:49:59;95207.75;;;10.16;67.90
13027;BME280;6580;42.680;23.324;2023-02-23T07:52:28;95202.94;;;10.19;67.25
13027;BME280;6580;42.680;23.324;2023-02-23T07:54:54;95205.81;;;10.26;66.65
13027;BME280;6580;42.680;23.324;2023-02-23T07:57:22;95198.22;;;10.39;65.84
13027;BME280;6580;42.680;23.324;2023-02-23T07:59:48;95199.28;;;10.20;67.26
13027;BME280;6580;42.680;23.324;2023-02-23T08:02:16;95201.25;;;10.44;66.63
13027;BME280;6580;42.680;23.324;2023-02-23T08:05:02;95202.81;;;10.54;65.26
13027;BME280;6580;42.680;23.324;2023-02-23T08:07:30;95207.91;;;10.14;67.23
13027;BME280;6580;42.680;23.324;2023-02-23T08:09:57;95205.56;;;10.37;66.88
13027;BME280;6580;42.680;23.324;2023-02-23T08:12:25;95201.41;;;10.68;65.22
13027;BME280;6580;42.680;23.324;2023-02-23T08:14:51;95195.25;;;11.16;62.65
13027;BME280;6580;42.680;23.324;2023-02-23T08:17:20;95183.00;;;11.47;61.23
13027;BME280;6580;42.680;23.324;2023-02-23T08:19:47;95190.22;;;12.42;57.85
13027;BME280;6580;42.680;23.324;2023-02-23T08:22:14;95189.78;;;13.23;54.84
13027;BME280;6580;42.680;23.324;2023-02-23T08:24:41;95185.22;;;14.07;51.97
13027;BME280;6580;42.680;23.324;2023-02-23T08:27:08;95182.72;;;14.06;50.71
13027;BME280;6580;42.680;23.324;2023-02-23T08:29:35;95182.88;;;14.78;48.76
13027;BME280;6580;42.680;23.324;2023-02-23T08:32:03;95184.44;;;15.16;47.45
13027;BME280;6580;42.680;23.324;2023-02-23T08:34:37;95177.16;;;15.38;46.48
13027;BME280;6580;42.680;23.324;2023-02-23T08:37:04;95180.47;;;15.76;45.44
13027;BME280;6580;42.680;23.324;2023-02-23T08:39:33;95177.31;;;16.08;44.35
13027;BME280;6580;42.680;23.324;2023-02-23T08:42:01;95172.75;;;16.50;43.52
13027;BME280;6580;42.680;23.324;2023-02-23T08:44:29;95169.63;;;16.05;43.72
13027;BME280;6580;42.680;23.324;2023-02-23T08:46:56;95171.25;;;16.47;42.28
13027;BME280;6580;42.680;23.324;2023-02-23T08:49:24;95178.13;;;16.08;42.92
13027;BME280;6580;42.680;23.324;2023-02-23T08:51:54;95175.16;;;17.00;42.00
13027;BME280;6580;42.680;23.324;2023-02-23T08:54:21;95166.59;;;17.70;40.75
13027;BME280;6580;42.680;23.324;2023-02-23T08:56:48;95163.94;;;17.77;39.74
13027;BME280;6580;42.680;23.324;2023-02-23T08:59:15;95167.16;;;17.13;40.57
13027;BME280;6580;42.680;23.324;2023-02-23T09:01:42;95163.34;;;17.88;39.37
13027;BME280;6580;42.680;23.324;2023-02-23T09:04:09;95168.13;;;17.99;39.23
13027;BME280;6580;42.680;23.324;2023-02-23T09:06:36;95159.50;;;18.87;37.55
13027;BME280;6580;42.680;23.324;2023-02-23T09:09:04;95157.38;;;19.22;36.61
13027;BME280;6580;42.680;23.324;2023-02-23T09:11:31;95146.69;;;19.96;35.25
13027;BME280;6580;42.680;23.324;2023-02-23T09:13:58;95154.13;;;18.36;37.34
13027;BME280;6580;42.680;23.324;2023-02-23T09:16:27;95141.69;;;18.54;36.78
13027;BME280;6580;42.680;23.324;2023-02-23T09:18:54;95151.16;;;19.15;36.67
13027;BME280;6580;42.680;23.324;2023-02-23T09:21:24;95139.13;;;19.67;35.73
13027;BME280;6580;42.680;23.324;2023-02-23T09:23:55;95141.38;;;20.45;34.65
13027;BME280;6580;42.680;23.324;2023-02-23T09:26:24;95144.81;;;20.34;34.03
13027;BME280;6580;42.680;23.324;2023-02-23T09:28:54;95146.66;;;21.31;33.02
13027;BME280;6580;42.680;23.324;2023-02-23T09:31:22;95130.75;;;22.18;32.06
13027;BME280;6580;42.680;23.324;2023-02-23T09:33:52;95134.16;;;22.43;31.14
13027;BME280;6580;42.680;23.324;2023-02-23T09:36:22;95142.72;;;21.27;32.36
13027;BME280;6580;42.680;23.324;2023-02-23T09:38:51;95140.84;;;21.10;32.83
13027;BME280;6580;42.680;23.324;2023-02-23T09:41:49;95140.03;;;21.81;31.92
13027;BME280;6580;42.680;23.324;2023-02-23T09:44:25;95128.88;;;22.59;30.80
13027;BME280;6580;42.680;23.324;2023-02-23T09:47:06;95138.75;;;23.06;29.89
13027;BME280;6580;42.680;23.324;2023-02-23T09:49:41;95109.16;;;22.41;30.54
13027;BME280;6580;42.680;23.324;2023-02-23T09:52:16;95131.94;;;22.51;30.61
13027;BME280;6580;42.680;23.324;2023-02-23T09:54:46;95129.34;;;21.68;30.61
13027;BME280;6580;42.680;23.324;2023-02-23T09:57:18;95127.78;;;22.37;30.46
13027;BME280;6580;42.680;23.324;2023-02-23T09:59:47;95126.34;;;23.33;29.34
13027;BME280;6580;42.680;23.324;2023-02-23T10:02:22;95122.38;;;24.14;28.31
13027;BME280;6580;42.680;23.324;2023-02-23T10:04:58;95123.47;;;23.62;28.62
13027;BME280;6580;42.680;23.324;2023-02-23T10:07:35;95112.94;;;23.65;29.03
13027;BME280;6580;42.680;23.324;2023-02-23T10:10:18;95115.91;;;24.31;27.90
13027;BME280;6580;42.680;23.324;2023-02-23T10:12:55;95118.00;;;24.41;27.58
13027;BME280;6580;42.680;23.324;2023-02-23T10:15:34;95116.06;;;23.12;28.72
13027;BME280;6580;42.680;23.324;2023-02-23T10:18:16;95100.91;;;23.50;28.08
13027;BME280;6580;42.680;23.324;2023-02-23T10:20:51;95116.19;;;23.40;28.35
13027;BME280;6580;42.680;23.324;2023-02-23T10:23:22;95099.28;;;23.88;27.55
13027;BME280;6580;42.680;23.324;2023-02-23T10:25:58;95095.69;;;23.49;27.97
13027;BME280;6580;42.680;23.324;2023-02-23T10:28:32;95109.50;;;22.44;29.42
13027;BME280;6580;42.680;23.324;2023-02-23T10:31:01;95099.94;;;21.83;30.37
13027;BME280;6580;42.680;23.324;2023-02-23T10:33:32;95093.72;;;23.33;28.80
13027;BME280;6580;42.680;23.324;2023-02-23T10:36:09;95090.41;;;22.21;29.52
13027;BME280;6580;42.680;23.324;2023-02-23T10:38:38;95089.78;;;22.37;29.75
13027;BME280;6580;42.680;23.324;2023-02-23T10:41:05;95073.88;;;22.52;29.40
13027;BME280;6580;42.680;23.324;2023-02-23T10:43:34;95050.22;;;23.33;28.51
13027;BME280;6580;42.680;23.324;2023-02-23T10:46:01;95083.81;;;23.04;28.72
13027;BME280;6580;42.680;23.324;2023-02-23T10:48:33;95077.34;;;23.16;28.76
13027;BME280;6580;42.680;23.324;2023-02-23T10:51:06;95069.56;;;23.98;27.66
13027;BME280;6580;42.680;23.324;2023-02-23T10:53:40;95063.81;;;24.56;27.13
13027;BME280;6580;42.680;23.324;2023-02-23T10:56:09;95064.81;;;24.66;26.89
13027;BME280;6580;42.680;23.324;2023-02-23T10:58:42;95058.69;;;24.59;27.00
13027;BME280;6580;42.680;23.324;2023-02-23T11:01:11;95045.47;;;25.17;26.35
13027;BME280;6580;42.680;23.324;2023-02-23T11:03:39;95047.69;;;25.41;26.05
13027;BME280;6580;42.680;23.324;2023-02-23T11:06:26;95059.53;;;24.15;27.02
13027;BME280;6580;42.680;23.324;2023-02-23T11:08:53;95045.88;;;24.76;26.77
13027;BME280;6580;42.680;23.324;2023-02-23T11:11:24;95043.56;;;24.84;26.65
13027;BME280;6580;42.680;23.324;2023-02-23T11:13:55;95042.78;;;25.05;26.35
13027;BME280;6580;42.680;23.324;2023-02-23T11:16:24;95031.91;;;24.23;27.06
13027;BME280;6580;42.680;23.324;2023-02-23T11:18:53;95045.66;;;23.61;27.86
13027;BME280;6580;42.680;23.324;2023-02-23T11:21:24;95047.09;;;23.63;27.87
13027;BME280;6580;42.680;23.324;2023-02-23T11:23:53;95036.19;;;24.03;27.53
13027;BME280;6580;42.680;23.324;2023-02-23T11:26:27;95019.41;;;25.47;26.32
13027;BME280;6580;42.680;23.324;2023-02-23T11:28:59;95015.84;;;25.89;25.92
13027;BME280;6580;42.680;23.324;2023-02-23T11:31:32;95017.63;;;25.58;25.56
13027;BME280;6580;42.680;23.324;2023-02-23T11:34:05;95022.38;;;24.70;26.62
13027;BME280;6580;42.680;23.324;2023-02-23T11:36:34;95023.53;;;23.80;27.56
13027;BME280;6580;42.680;23.324;2023-02-23T11:39:13;95015.44;;;23.46;28.08
13027;BME280;6580;42.680;23.324;2023-02-23T11:41:43;95013.13;;;23.94;27.31
13027;BME280;6580;42.680;23.324;2023-02-23T11:44:21;95013.03;;;23.61;27.73
13027;BME280;6580;42.680;23.324;2023-02-23T11:46:50;94996.38;;;24.13;26.88
13027;BME280;6580;42.680;23.324;2023-02-23T11:49:19;95006.94;;;24.10;27.22
13027;BME280;6580;42.680;23.324;2023-02-23T11:51:48;95000.59;;;24.54;26.90
13027;BME280;6580;42.680;23.324;2023-02-23T11:54:20;95004.31;;;25.02;26.07
13027;BME280;6580;42.680;23.324;2023-02-23T11:56:50;94994.81;;;23.34;27.54
13027;BME280;6580;42.680;23.324;2023-02-23T11:59:27;95003.63;;;21.80;29.54
13027;BME280;6580;42.680;23.324;2023-02-23T12:02:00;95005.31;;;22.04;29.63
13027;BME280;6580;42.680;23.324;2023-02-23T12:04:32;94991.41;;;21.42;30.03
13027;BME280;6580;42.680;23.324;2023-02-23T12:10:02;94994.28;;;23.09;28.64
13027;BME280;6580;42.680;23.324;2023-02-23T12:12:39;94989.41;;;23.62;27.49
13027;BME280;6580;42.680;23.324;2023-02-23T12:15:25;94989.81;;;23.81;27.34
13027;BME280;6580;42.680;23.324;2023-02-23T12:17:57;94995.16;;;24.37;26.67
13027;BME280;6580;42.680;23.324;2023-02-23T12:20:29;94990.59;;;24.26;26.58
13027;BME280;6580;42.680;23.324;2023-02-23T12:23:01;94987.09;;;23.81;26.79
13027;BME280;6580;42.680;23.324;2023-02-23T12:25:34;94995.38;;;23.08;27.61
13027;BME280;6580;42.680;23.324;2023-02-23T12:28:09;94999.22;;;22.20;28.98
13027;BME280;6580;42.680;23.324;2023-02-23T12:30:45;94989.25;;;21.91;29.42
13027;BME280;6580;42.680;23.324;2023-02-23T12:33:17;94984.59;;;21.40;29.51
13027;BME280;6580;42.680;23.324;2023-02-23T12:35:52;94989.59;;;21.25;29.97
13027;BME280;6580;42.680;23.324;2023-02-23T12:38:25;94979.03;;;21.35;29.87
13027;BME280;6580;42.680;23.324;2023-02-23T12:41:00;94977.97;;;21.36;30.04
13027;BME280;6580;42.680;23.324;2023-02-23T12:43:35;94986.59;;;21.62;30.18
13027;BME280;6580;42.680;23.324;2023-02-23T12:46:11;94980.28;;;21.50;29.88
13027;BME280;6580;42.680;23.324;2023-02-23T12:48:47;94985.91;;;21.19;30.45
13027;BME280;6580;42.680;23.324;2023-02-23T12:51:25;94986.00;;;20.95;30.93
13027;BME280;6580;42.680;23.324;2023-02-23T12:53:56;94983.13;;;21.26;30.81
13027;BME280;6580;42.680;23.324;2023-02-23T12:56:42;94970.50;;;21.02;30.57
13027;BME280;6580;42.680;23.324;2023-02-23T12:59:45;94971.53;;;21.19;31.07
13027;BME280;6580;42.680;23.324;2023-02-23T13:02:19;94967.69;;;21.26;31.58
13027;BME280;6580;42.680;23.324;2023-02-23T13:05:04;94973.59;;;20.87;31.87
13027;BME280;6580;42.680;23.324;2023-02-23T13:07:43;94976.72;;;20.66;32.18
13027;BME280;6580;42.680;23.324;2023-02-23T13:10:21;94964.34;;;20.95;31.87
13027;BME280;6580;42.680;23.324;2023-02-23T13:13:00;94981.59;;;20.82;31.85
13027;BME280;6580;42.680;23.324;2023-02-23T13:15:45;94974.34;;;20.94;32.31
13027;BME280;6580;42.680;23.324;2023-02-23T13:18:22;94981.88;;;20.32;32.79
13027;BME280;6580;42.680;23.324;2023-02-23T13:20:54;94981.53;;;20.47;32.62
13027;BME280;6580;42.680;23.324;2023-02-23T13:23:30;94983.84;;;20.43;32.51
13027;BME280;6580;42.680;23.324;2023-02-23T13:26:05;94972.78;;;20.02;32.93
13027;BME280;6580;42.680;23.324;2023-02-23T13:28:48;94977.56;;;20.07;33.07
13027;BME280;6580;42.680;23.324;2023-02-23T13:31:25;94975.75;;;19.94;33.44
13027;BME280;6580;42.680;23.324;2023-02-23T13:33:56;94967.59;;;20.25;33.04
13027;BME280;6580;42.680;23.324;2023-02-23T13:36:26;94975.47;;;20.09;33.34
13027;BME280;6580;42.680;23.324;2023-02-23T13:39:27;94976.47;;;19.83;33.64
13027;BME280;6580;42.680;23.324;2023-02-23T13:42:09;94970.75;;;19.98;33.63
13027;BME280;6580;42.680;23.324;2023-02-23T13:44:45;94969.50;;;19.94;33.35
13027;BME280;6580;42.680;23.324;2023-02-23T13:47:27;94980.31;;;20.00;33.37